AirNav  
 
 1371 users online  

OL07 Carnegie Municipal Hospital Heliport
Carnegie, Oklahoma, USA


FAA INFORMATION EFFECTIVE 09 NOVEMBER 2017

Location

FAA Identifier: OL07
Lat/Long: 35-06-28.5200N / 098-36-18.4000W
35-06.475333N / 098-36.306667W
35.1079222 / -98.6051111
(estimated)
Elevation: 1234 ft. / 376 m (estimated)
Variation: 08E (1985)
Time zone: UTC -6 (UTC -5 during Daylight Saving Time)
Zip code: 73015

Heliport Operations

Heliport use: Private use, MEDICAL
Activation date: 07/1987
Control tower: no
ARTCC: FORT WORTH CENTER
FSS: MC ALESTER FLIGHT SERVICE STATION
Attendance: UNATNDD
Segmented circle: no
Lights: SS-SR

Nearby radio navigation aids

VOR radial/distance  VOR name  Freq  Var
HBRr047/26.8HOBART VORTAC111.8010E
BFVr100/30.5BURNS FLAT VORTAC110.0005E
LAWr337/37.9LAWTON VOR/DME109.4009E

 
NDB name  Hdg/Dist  Freq  Var  ID
TRAIL324/22.038809EOFZ --- ..-. --..
POST334/31.542508EPFL .--. ..-. .-..

Heliport Services

Runway Information

Helipad H1

Dimensions: 75 x 75 ft. / 23 x 23 m
Surface: asphalt
Runway edge lights: PERIMETER LGTS.
Latitude: 35-06.475333N
Longitude: 098-36.306667W
Elevation: 1234.0 ft.
Traffic pattern: leftleft

Heliport Ownership and Management from official FAA records

Ownership: Publicly-owned
Owner: CARNEGIE MUNICIPAL HOSPITAL
102 NORTH BROADWAY
CARNEGIE, OK 73015
Phone 580-654-1050
Manager: DORIS BROWN,ADMIN
PO BOX 97
CARNEGIE, OK 73015
Phone 580-654-1050

Instrument Procedures

There are no published instrument procedures at OL07.

Some nearby airports with instrument procedures:

KHBR - Hobart Regional Airport (23 nm W)
KOJA - Thomas P Stafford Airport (26 nm N)
2O8 - Hinton Municipal Airport (27 nm NE)
KFSI - Henry Post Army Airfield (Fort Sill) (29 nm S)
KCLK - Clinton Regional Airport (30 nm NW)
 
Loc | Ops | Rwys | IFR | FBO | Links
Com | Nav | Svcs | Stats | Notes


 
Area around OL07 (Carnegie Municipal Hospital Heliport)
 
Road maps at: MapQuest Bing Google
 
Aerial photo
No photo
 
Sectional chart

 
Airport distance calculator
Flying to Carnegie Municipal Hospital Heliport? Find the distance to fly.

From to OL07

Sunrise and sunset
Times for 20-Nov-2017
 Local
(UTC-6)
 Zulu
(UTC)
Morning civil twilight06:4812:48
Sunrise07:1513:15
Sunset17:2523:25
Evening civil twilight17:5223:52

Current date and time
Zulu (UTC)  20-Nov-2017 22:02:09
Local (UTC-6)  20-Nov-2017 16:02:09
 
METAR
KHBR 
23nm W 
202153Z AUTO 21019KT 10SM CLR 17/M02 A2988 RMK AO2 PK WND 21028/2121 SLP117 T01721017
KOJA 
26nm N 
202155Z AUTO 20014G22KT 10SM CLR 16/M01 A2987 RMK AO2
KCLK 
30nm NW 
202155Z AUTO 20014G20KT 10SM CLR 16/M06 A2987 RMK AO2 PNO
KFSI 
30nm S 
202156Z 19013G20KT 10SM FEW250 17/01 A2988 RMK AO2A SLP118 T01700014 $
KCHK 
31nm E 
202155Z AUTO 20014G18KT 10SM CLR 17/M02 A2987 RMK AO2 T01711019
KCSM 
33nm NW 
202153Z 20020KT 10SM CLR 16/M03 A2986 RMK AO2 PK WND 19028/2116 SLP110 T01561033
KLAW 
35nm S 
202153Z 18013KT 10SM CLR 18/M01 A2990 RMK AO2 SLP124 T01781011
KRQO 
37nm NE 
202155Z AUTO 20022G26KT 10SM 17/M02 A2990 RMK AO2 T01661016
KLTS 
42nm SW 
202156Z AUTO 19016KT 10SM CLR 18/M04 A2988 RMK AO2 SLP119 T01841043 $
KELK 
43nm NW 
202155Z AUTO 21013G21KT 10SM CLR 16/M04 A2985 RMK AO2 T01581039
TAF
KHBR 
23nm W 
201725Z 2018/2118 20021G31KT P6SM SCT250 FM210000 18010KT P6SM SCT250 FM211200 33008KT P6SM SCT150 BKN250 FM211600 02017G25KT P6SM BKN150
NOTAMs
Click for the latest NOTAMs
NOTAMs are issued by the DoD/FAA and will open in a separate window not controlled by AirNav.

 

 
 

Would you like to see your business listed on this page?

 If your business provides an interesting product or service to pilots, flight crews, aircraft, or users of the Carnegie Municipal Hospital Heliport, you should consider listing it here.  To start the listing process, click on the button below
 
Add a business
 

Other Pages about Carnegie Municipal Hospital Heliport

Update a link
 
Copyright © AirNav, LLC. All rights reserved. Privacy Policy  Contact